sensor_id;sensor_type;location;lat;lon;timestamp;temperature;humidity
652;DHT22;310;48.490;9.200;2023-03-25T00:01:53;13.20;35.30
652;DHT22;310;48.490;9.200;2023-03-25T00:04:18;12.70;35.80
652;DHT22;310;48.490;9.200;2023-03-25T00:06:44;12.70;36.90
652;DHT22;310;48.490;9.200;2023-03-25T00:09:10;12.90;37.40
652;DHT22;310;48.490;9.200;2023-03-25T00:11:35;12.90;37.90
652;DHT22;310;48.490;9.200;2023-03-25T00:14:01;12.50;43.40
652;DHT22;310;48.490;9.200;2023-03-25T00:16:26;11.30;49.60
652;DHT22;310;48.490;9.200;2023-03-25T00:18:52;10.20;71.00
652;DHT22;310;48.490;9.200;2023-03-25T00:21:18;9.70;76.10
652;DHT22;310;48.490;9.200;2023-03-25T00:23:44;9.50;78.10
652;DHT22;310;48.490;9.200;2023-03-25T00:26:09;9.80;74.80
652;DHT22;310;48.490;9.200;2023-03-25T00:28:36;10.20;71.90
652;DHT22;310;48.490;9.200;2023-03-25T00:31:07;10.40;66.20
652;DHT22;310;48.490;9.200;2023-03-25T00:33:35;10.20;61.90
652;DHT22;310;48.490;9.200;2023-03-25T00:36:02;10.30;57.70
652;DHT22;310;48.490;9.200;2023-03-25T00:38:31;10.00;60.20
652;DHT22;310;48.490;9.200;2023-03-25T00:41:18;10.40;56.60
652;DHT22;310;48.490;9.200;2023-03-25T00:43:58;10.30;59.70
652;DHT22;310;48.490;9.200;2023-03-25T00:46:25;10.30;60.90
652;DHT22;310;48.490;9.200;2023-03-25T00:48:52;10.40;58.80
652;DHT22;310;48.490;9.200;2023-03-25T00:51:19;10.50;58.40
652;DHT22;310;48.490;9.200;2023-03-25T00:53:47;10.60;56.00
652;DHT22;310;48.490;9.200;2023-03-25T00:56:16;10.50;54.80
652;DHT22;310;48.490;9.200;2023-03-25T00:58:42;10.70;53.80
652;DHT22;310;48.490;9.200;2023-03-25T01:01:12;10.90;52.70
652;DHT22;310;48.490;9.200;2023-03-25T01:03:42;10.60;51.70
652;DHT22;310;48.490;9.200;2023-03-25T01:06:15;10.80;49.30
652;DHT22;310;48.490;9.200;2023-03-25T01:08:42;10.70;50.10
652;DHT22;310;48.490;9.200;2023-03-25T01:11:21;10.80;50.20
652;DHT22;310;48.490;9.200;2023-03-25T01:13:47;10.90;48.90
652;DHT22;310;48.490;9.200;2023-03-25T01:16:13;10.60;50.30
652;DHT22;310;48.490;9.200;2023-03-25T01:18:39;10.90;47.90
652;DHT22;310;48.490;9.200;2023-03-25T01:21:05;10.90;49.40
652;DHT22;310;48.490;9.200;2023-03-25T01:23:32;10.60;49.90
652;DHT22;310;48.490;9.200;2023-03-25T01:25:58;10.50;50.70
652;DHT22;310;48.490;9.200;2023-03-25T01:28:24;10.60;50.50
652;DHT22;310;48.490;9.200;2023-03-25T01:30:50;10.60;50.00
652;DHT22;310;48.490;9.200;2023-03-25T01:33:15;10.60;51.50
652;DHT22;310;48.490;9.200;2023-03-25T01:35:41;11.00;49.50
652;DHT22;310;48.490;9.200;2023-03-25T01:38:07;11.00;49.50
652;DHT22;310;48.490;9.200;2023-03-25T01:40:33;11.00;51.10
652;DHT22;310;48.490;9.200;2023-03-25T01:42:59;10.80;51.50
652;DHT22;310;48.490;9.200;2023-03-25T01:45:29;10.80;51.30
652;DHT22;310;48.490;9.200;2023-03-25T01:50:36;10.60;50.80
652;DHT22;310;48.490;9.200;2023-03-25T01:53:04;11.00;49.50
652;DHT22;310;48.490;9.200;2023-03-25T01:55:32;11.10;51.40
652;DHT22;310;48.490;9.200;2023-03-25T01:58:02;10.80;52.60
652;DHT22;310;48.490;9.200;2023-03-25T02:00:29;10.40;57.00
652;DHT22;310;48.490;9.200;2023-03-25T02:02:57;10.40;62.70
652;DHT22;310;48.490;9.200;2023-03-25T02:08:03;9.90;62.10
652;DHT22;310;48.490;9.200;2023-03-25T02:10:31;10.00;62.80
652;DHT22;310;48.490;9.200;2023-03-25T02:12:58;10.10;59.20
652;DHT22;310;48.490;9.200;2023-03-25T02:15:24;10.10;57.20
652;DHT22;310;48.490;9.200;2023-03-25T02:40:04;9.80;53.70
652;DHT22;310;48.490;9.200;2023-03-25T02:42:51;9.80;53.20
652;DHT22;310;48.490;9.200;2023-03-25T02:45:26;10.20;52.50
652;DHT22;310;48.490;9.200;2023-03-25T02:50:51;9.70;55.40
652;DHT22;310;48.490;9.200;2023-03-25T02:53:28;9.70;54.70
652;DHT22;310;48.490;9.200;2023-03-25T02:56:00;9.80;54.40
652;DHT22;310;48.490;9.200;2023-03-25T02:58:27;9.60;57.20
652;DHT22;310;48.490;9.200;2023-03-25T03:00:54;9.70;61.80
652;DHT22;310;48.490;9.200;2023-03-25T03:03:24;9.90;58.90
652;DHT22;310;48.490;9.200;2023-03-25T03:05:52;9.70;62.20
652;DHT22;310;48.490;9.200;2023-03-25T03:11:19;9.60;62.20
652;DHT22;310;48.490;9.200;2023-03-25T03:22:53;9.20;58.80
652;DHT22;310;48.490;9.200;2023-03-25T03:25:29;9.50;60.30
652;DHT22;310;48.490;9.200;2023-03-25T03:30:49;9.50;58.60
652;DHT22;310;48.490;9.200;2023-03-25T03:36:06;10.40;51.70
652;DHT22;310;48.490;9.200;2023-03-25T03:38:37;10.60;50.70
652;DHT22;310;48.490;9.200;2023-03-25T03:41:07;10.70;51.70
652;DHT22;310;48.490;9.200;2023-03-25T03:43:54;10.70;50.90
652;DHT22;310;48.490;9.200;2023-03-25T03:46:25;10.40;50.70
652;DHT22;310;48.490;9.200;2023-03-25T03:48:54;9.80;55.10
652;DHT22;310;48.490;9.200;2023-03-25T03:51:31;10.20;51.70
652;DHT22;310;48.490;9.200;2023-03-25T03:54:12;10.20;51.10
652;DHT22;310;48.490;9.200;2023-03-25T03:56:53;10.20;49.90
652;DHT22;310;48.490;9.200;2023-03-25T03:59:41;10.40;48.90
652;DHT22;310;48.490;9.200;2023-03-25T04:02:19;10.60;49.10
652;DHT22;310;48.490;9.200;2023-03-25T04:04:49;11.00;47.70
652;DHT22;310;48.490;9.200;2023-03-25T04:07:18;11.30;50.60
652;DHT22;310;48.490;9.200;2023-03-25T04:10:02;11.20;47.30
652;DHT22;310;48.490;9.200;2023-03-25T04:12:33;11.20;46.40
652;DHT22;310;48.490;9.200;2023-03-25T04:15:03;11.20;46.10
652;DHT22;310;48.490;9.200;2023-03-25T04:17:29;10.90;48.00
652;DHT22;310;48.490;9.200;2023-03-25T04:19:57;11.20;47.50
652;DHT22;310;48.490;9.200;2023-03-25T04:22:23;11.60;46.10
652;DHT22;310;48.490;9.200;2023-03-25T04:24:49;11.00;46.00
652;DHT22;310;48.490;9.200;2023-03-25T04:27:17;10.90;46.20
652;DHT22;310;48.490;9.200;2023-03-25T04:29:43;10.70;47.50
652;DHT22;310;48.490;9.200;2023-03-25T04:34:38;10.20;51.00
652;DHT22;310;48.490;9.200;2023-03-25T04:37:04;10.60;48.80
652;DHT22;310;48.490;9.200;2023-03-25T04:39:29;10.10;50.50
652;DHT22;310;48.490;9.200;2023-03-25T04:41:57;10.10;48.70
652;DHT22;310;48.490;9.200;2023-03-25T04:44:28;10.20;50.90
652;DHT22;310;48.490;9.200;2023-03-25T04:46:54;10.30;48.90
652;DHT22;310;48.490;9.200;2023-03-25T04:49:22;10.10;48.70
652;DHT22;310;48.490;9.200;2023-03-25T04:51:48;10.10;49.40
652;DHT22;310;48.490;9.200;2023-03-25T04:54:16;10.20;48.80
652;DHT22;310;48.490;9.200;2023-03-25T04:56:42;10.00;48.40
652;DHT22;310;48.490;9.200;2023-03-25T04:59:07;10.20;47.90
652;DHT22;310;48.490;9.200;2023-03-25T05:01:36;10.20;47.00
652;DHT22;310;48.490;9.200;2023-03-25T05:04:06;10.00;47.50
652;DHT22;310;48.490;9.200;2023-03-25T05:06:34;10.20;47.30
652;DHT22;310;48.490;9.200;2023-03-25T05:09:01;10.20;46.60
652;DHT22;310;48.490;9.200;2023-03-25T05:11:30;10.10;46.70
652;DHT22;310;48.490;9.200;2023-03-25T05:13:56;9.90;48.50
652;DHT22;310;48.490;9.200;2023-03-25T05:16:22;10.20;47.80
652;DHT22;310;48.490;9.200;2023-03-25T05:18:47;10.70;45.70
652;DHT22;310;48.490;9.200;2023-03-25T05:21:13;10.80;44.60
652;DHT22;310;48.490;9.200;2023-03-25T05:23:39;10.60;45.70
652;DHT22;310;48.490;9.200;2023-03-25T05:26:07;10.80;44.30
652;DHT22;310;48.490;9.200;2023-03-25T05:28:34;10.70;45.00
652;DHT22;310;48.490;9.200;2023-03-25T05:31:00;10.40;45.90
652;DHT22;310;48.490;9.200;2023-03-25T05:33:25;10.20;46.00
652;DHT22;310;48.490;9.200;2023-03-25T05:35:51;10.80;43.80
652;DHT22;310;48.490;9.200;2023-03-25T05:38:17;10.70;42.60
652;DHT22;310;48.490;9.200;2023-03-25T05:40:47;10.70;43.30
652;DHT22;310;48.490;9.200;2023-03-25T05:43:14;11.00;41.50
652;DHT22;310;48.490;9.200;2023-03-25T05:45:41;10.80;42.30
652;DHT22;310;48.490;9.200;2023-03-25T05:48:07;11.00;41.90
652;DHT22;310;48.490;9.200;2023-03-25T05:50:34;11.30;42.10
652;DHT22;310;48.490;9.200;2023-03-25T05:53:00;11.30;40.00
652;DHT22;310;48.490;9.200;2023-03-25T05:55:27;11.50;38.60
652;DHT22;310;48.490;9.200;2023-03-25T05:57:52;10.90;39.50
652;DHT22;310;48.490;9.200;2023-03-25T06:00:19;11.10;39.70
652;DHT22;310;48.490;9.200;2023-03-25T06:02:46;11.20;39.30
652;DHT22;310;48.490;9.200;2023-03-25T06:05:13;11.10;38.90
652;DHT22;310;48.490;9.200;2023-03-25T06:07:40;11.20;38.00
652;DHT22;310;48.490;9.200;2023-03-25T06:10:11;11.00;38.20
652;DHT22;310;48.490;9.200;2023-03-25T06:12:38;10.90;38.90
652;DHT22;310;48.490;9.200;2023-03-25T06:15:07;10.70;39.50
652;DHT22;310;48.490;9.200;2023-03-25T06:17:33;10.80;39.60
652;DHT22;310;48.490;9.200;2023-03-25T06:20:04;11.10;39.20
652;DHT22;310;48.490;9.200;2023-03-25T06:22:40;10.70;40.60
652;DHT22;310;48.490;9.200;2023-03-25T06:25:08;11.10;39.60
652;DHT22;310;48.490;9.200;2023-03-25T06:27:34;11.50;38.50
652;DHT22;310;48.490;9.200;2023-03-25T06:30:06;11.50;38.00
652;DHT22;310;48.490;9.200;2023-03-25T06:32:32;11.40;38.10
652;DHT22;310;48.490;9.200;2023-03-25T06:34:58;11.00;38.40
652;DHT22;310;48.490;9.200;2023-03-25T06:37:23;10.40;41.30
652;DHT22;310;48.490;9.200;2023-03-25T06:39:51;10.80;41.00
652;DHT22;310;48.490;9.200;2023-03-25T06:42:24;10.90;40.20
652;DHT22;310;48.490;9.200;2023-03-25T06:44:50;11.10;39.70
652;DHT22;310;48.490;9.200;2023-03-25T06:47:15;11.30;38.20
652;DHT22;310;48.490;9.200;2023-03-25T06:49:41;11.30;39.50
652;DHT22;310;48.490;9.200;2023-03-25T06:52:06;11.40;40.20
652;DHT22;310;48.490;9.200;2023-03-25T06:54:32;10.90;39.90
652;DHT22;310;48.490;9.200;2023-03-25T06:56:58;11.20;40.40
652;DHT22;310;48.490;9.200;2023-03-25T06:59:24;11.30;39.70
652;DHT22;310;48.490;9.200;2023-03-25T07:01:49;11.30;39.00
652;DHT22;310;48.490;9.200;2023-03-25T07:04:15;11.50;38.50
652;DHT22;310;48.490;9.200;2023-03-25T07:06:41;11.90;40.40
652;DHT22;310;48.490;9.200;2023-03-25T07:09:06;11.90;36.50
652;DHT22;310;48.490;9.200;2023-03-25T07:11:32;12.00;37.90
652;DHT22;310;48.490;9.200;2023-03-25T07:13:58;11.90;38.80
652;DHT22;310;48.490;9.200;2023-03-25T07:16:25;11.60;39.00
652;DHT22;310;48.490;9.200;2023-03-25T07:18:50;10.90;38.80
652;DHT22;310;48.490;9.200;2023-03-25T07:21:17;10.60;40.40
652;DHT22;310;48.490;9.200;2023-03-25T07:23:43;10.70;40.20
652;DHT22;310;48.490;9.200;2023-03-25T07:26:09;11.20;40.50
652;DHT22;310;48.490;9.200;2023-03-25T07:28:35;10.80;39.40
652;DHT22;310;48.490;9.200;2023-03-25T07:31:06;11.00;38.70
652;DHT22;310;48.490;9.200;2023-03-25T07:33:31;11.00;39.80
652;DHT22;310;48.490;9.200;2023-03-25T07:35:57;10.80;40.50
652;DHT22;310;48.490;9.200;2023-03-25T07:38:22;11.20;39.20
652;DHT22;310;48.490;9.200;2023-03-25T07:40:48;10.60;40.30
652;DHT22;310;48.490;9.200;2023-03-25T07:43:13;11.00;39.70
652;DHT22;310;48.490;9.200;2023-03-25T07:45:39;10.90;40.10
652;DHT22;310;48.490;9.200;2023-03-25T07:48:05;10.60;40.70
652;DHT22;310;48.490;9.200;2023-03-25T07:50:37;11.10;40.20
652;DHT22;310;48.490;9.200;2023-03-25T07:53:03;11.00;39.20
652;DHT22;310;48.490;9.200;2023-03-25T07:55:28;11.30;38.90
652;DHT22;310;48.490;9.200;2023-03-25T07:57:54;11.40;38.70
652;DHT22;310;48.490;9.200;2023-03-25T08:00:20;11.60;38.70
652;DHT22;310;48.490;9.200;2023-03-25T08:02:46;11.90;37.40
652;DHT22;310;48.490;9.200;2023-03-25T08:05:12;11.60;36.70
652;DHT22;310;48.490;9.200;2023-03-25T08:07:40;11.90;36.80
652;DHT22;310;48.490;9.200;2023-03-25T08:10:06;12.60;36.40
652;DHT22;310;48.490;9.200;2023-03-25T08:12:32;11.90;36.80
652;DHT22;310;48.490;9.200;2023-03-25T08:14:57;12.10;37.20
652;DHT22;310;48.490;9.200;2023-03-25T08:17:24;12.00;35.50
652;DHT22;310;48.490;9.200;2023-03-25T08:19:50;12.20;35.30
652;DHT22;310;48.490;9.200;2023-03-25T08:22:15;12.10;37.00
652;DHT22;310;48.490;9.200;2023-03-25T08:24:41;12.10;37.30
652;DHT22;310;48.490;9.200;2023-03-25T08:27:06;12.60;36.20
652;DHT22;310;48.490;9.200;2023-03-25T08:29:32;12.40;35.60
652;DHT22;310;48.490;9.200;2023-03-25T08:31:59;12.60;35.20
652;DHT22;310;48.490;9.200;2023-03-25T08:34:24;13.10;33.60
652;DHT22;310;48.490;9.200;2023-03-25T08:36:51;13.50;33.20
652;DHT22;310;48.490;9.200;2023-03-25T08:39:17;12.90;33.80
652;DHT22;310;48.490;9.200;2023-03-25T08:41:46;13.00;32.30
652;DHT22;310;48.490;9.200;2023-03-25T08:44:11;12.70;33.90
652;DHT22;310;48.490;9.200;2023-03-25T08:46:37;12.90;34.10
652;DHT22;310;48.490;9.200;2023-03-25T08:49:04;12.70;34.20
652;DHT22;310;48.490;9.200;2023-03-25T08:51:29;13.10;35.20
652;DHT22;310;48.490;9.200;2023-03-25T08:53:56;13.10;34.00
652;DHT22;310;48.490;9.200;2023-03-25T08:56:21;13.50;34.00
652;DHT22;310;48.490;9.200;2023-03-25T08:58:47;13.70;33.10
652;DHT22;310;48.490;9.200;2023-03-25T09:01:13;13.50;31.30
652;DHT22;310;48.490;9.200;2023-03-25T09:03:38;13.00;33.20
652;DHT22;310;48.490;9.200;2023-03-25T09:06:06;13.10;31.90
652;DHT22;310;48.490;9.200;2023-03-25T09:08:32;13.50;31.80
652;DHT22;310;48.490;9.200;2023-03-25T09:10:58;13.70;31.70
652;DHT22;310;48.490;9.200;2023-03-25T09:13:24;13.40;31.40
652;DHT22;310;48.490;9.200;2023-03-25T09:15:49;13.20;31.80
652;DHT22;310;48.490;9.200;2023-03-25T09:18:15;13.00;32.60
652;DHT22;310;48.490;9.200;2023-03-25T09:20:41;13.80;30.80
652;DHT22;310;48.490;9.200;2023-03-25T09:23:06;13.80;32.10
652;DHT22;310;48.490;9.200;2023-03-25T09:25:34;13.70;30.70
652;DHT22;310;48.490;9.200;2023-03-25T09:28:00;13.80;31.70
652;DHT22;310;48.490;9.200;2023-03-25T09:30:25;13.30;32.70
652;DHT22;310;48.490;9.200;2023-03-25T09:32:51;13.50;32.50
652;DHT22;310;48.490;9.200;2023-03-25T09:35:17;13.20;32.60
652;DHT22;310;48.490;9.200;2023-03-25T09:37:43;13.70;31.50
652;DHT22;310;48.490;9.200;2023-03-25T09:40:14;13.90;31.80
652;DHT22;310;48.490;9.200;2023-03-25T09:45:24;14.00;31.30
652;DHT22;310;48.490;9.200;2023-03-25T09:48:06;13.60;31.50
652;DHT22;310;48.490;9.200;2023-03-25T09:50:37;13.80;30.90
652;DHT22;310;48.490;9.200;2023-03-25T09:53:30;14.40;30.00
652;DHT22;310;48.490;9.200;2023-03-25T09:55:56;14.50;30.00
652;DHT22;310;48.490;9.200;2023-03-25T09:58:48;13.70;30.50
652;DHT22;310;48.490;9.200;2023-03-25T10:12:42;14.00;30.60
652;DHT22;310;48.490;9.200;2023-03-25T10:15:16;13.50;34.30
652;DHT22;310;48.490;9.200;2023-03-25T10:26:27;14.20;32.60
652;DHT22;310;48.490;9.200;2023-03-25T10:29:07;13.20;36.60
652;DHT22;310;48.490;9.200;2023-03-25T10:31:37;12.60;36.10
652;DHT22;310;48.490;9.200;2023-03-25T10:34:07;13.30;35.50
652;DHT22;310;48.490;9.200;2023-03-25T10:36:41;13.20;38.00
652;DHT22;310;48.490;9.200;2023-03-25T10:39:17;12.00;42.70
652;DHT22;310;48.490;9.200;2023-03-25T10:41:54;11.80;46.90
652;DHT22;310;48.490;9.200;2023-03-25T10:44:25;11.20;51.40
652;DHT22;310;48.490;9.200;2023-03-25T10:46:56;10.70;59.10
652;DHT22;310;48.490;9.200;2023-03-25T10:49:27;10.90;60.50
652;DHT22;310;48.490;9.200;2023-03-25T10:51:54;10.60;63.40
652;DHT22;310;48.490;9.200;2023-03-25T10:54:26;11.10;60.20
652;DHT22;310;48.490;9.200;2023-03-25T10:56:54;11.90;58.90
652;DHT22;310;48.490;9.200;2023-03-25T10:59:28;12.70;52.90
652;DHT22;310;48.490;9.200;2023-03-25T11:01:55;13.00;52.90
652;DHT22;310;48.490;9.200;2023-03-25T11:04:26;13.90;45.60
652;DHT22;310;48.490;9.200;2023-03-25T11:06:56;14.00;43.10
652;DHT22;310;48.490;9.200;2023-03-25T11:09:27;14.40;41.10
652;DHT22;310;48.490;9.200;2023-03-25T11:11:55;14.40;37.30
652;DHT22;310;48.490;9.200;2023-03-25T11:14:25;14.30;36.30
652;DHT22;310;48.490;9.200;2023-03-25T11:16:59;14.10;36.20
652;DHT22;310;48.490;9.200;2023-03-25T11:19:34;14.10;35.50
652;DHT22;310;48.490;9.200;2023-03-25T11:22:10;13.50;34.10
652;DHT22;310;48.490;9.200;2023-03-25T11:24:42;13.30;32.70
652;DHT22;310;48.490;9.200;2023-03-25T11:27:10;13.40;33.50
652;DHT22;310;48.490;9.200;2023-03-25T11:29:41;13.20;33.20
652;DHT22;310;48.490;9.200;2023-03-25T11:32:15;13.00;32.40
652;DHT22;310;48.490;9.200;2023-03-25T11:34:46;12.70;32.40
652;DHT22;310;48.490;9.200;2023-03-25T11:37:22;13.00;31.80
652;DHT22;310;48.490;9.200;2023-03-25T11:39:54;12.50;33.30
652;DHT22;310;48.490;9.200;2023-03-25T11:42:34;13.40;32.30
652;DHT22;310;48.490;9.200;2023-03-25T11:45:02;13.50;31.40
652;DHT22;310;48.490;9.200;2023-03-25T11:47:37;13.70;31.30
652;DHT22;310;48.490;9.200;2023-03-25T11:50:04;13.40;30.00
652;DHT22;310;48.490;9.200;2023-03-25T11:52:44;13.00;30.70
652;DHT22;310;48.490;9.200;2023-03-25T11:55:42;13.40;31.10
652;DHT22;310;48.490;9.200;2023-03-25T11:58:14;13.80;29.90
652;DHT22;310;48.490;9.200;2023-03-25T12:00:46;13.50;29.80
652;DHT22;310;48.490;9.200;2023-03-25T12:05:39;15.50;26.70
652;DHT22;310;48.490;9.200;2023-03-25T12:08:13;15.80;26.70
652;DHT22;310;48.490;9.200;2023-03-25T12:10:57;15.50;26.40
652;DHT22;310;48.490;9.200;2023-03-25T12:19:12;16.00;25.50
652;DHT22;310;48.490;9.200;2023-03-25T12:27:08;18.20;24.30
652;DHT22;310;48.490;9.200;2023-03-25T12:35:10;15.20;26.70
652;DHT22;310;48.490;9.200;2023-03-25T12:40:45;14.10;29.70
652;DHT22;310;48.490;9.200;2023-03-25T12:46:54;12.40;37.20
652;DHT22;310;48.490;9.200;2023-03-25T12:50:03;12.20;37.50
652;DHT22;310;48.490;9.200;2023-03-25T12:52:54;13.10;33.90
652;DHT22;310;48.490;9.200;2023-03-25T12:55:29;15.60;28.30
652;DHT22;310;48.490;9.200;2023-03-25T13:00:46;17.80;24.40
652;DHT22;310;48.490;9.200;2023-03-25T13:03:43;18.20;23.80
652;DHT22;310;48.490;9.200;2023-03-25T13:11:43;17.80;24.40
652;DHT22;310;48.490;9.200;2023-03-25T13:14:23;15.40;27.90
652;DHT22;310;48.490;9.200;2023-03-25T13:16:52;14.80;28.80
652;DHT22;310;48.490;9.200;2023-03-25T13:19:29;14.70;29.90
652;DHT22;310;48.490;9.200;2023-03-25T13:22:04;14.70;28.80
652;DHT22;310;48.490;9.200;2023-03-25T13:24:42;14.40;29.00
652;DHT22;310;48.490;9.200;2023-03-25T13:27:11;14.20;30.90
652;DHT22;310;48.490;9.200;2023-03-25T13:29:51;13.40;35.30
652;DHT22;310;48.490;9.200;2023-03-25T13:32:39;13.40;35.50
652;DHT22;310;48.490;9.200;2023-03-25T13:35:26;13.10;37.70
652;DHT22;310;48.490;9.200;2023-03-25T13:37:57;12.60;40.60
652;DHT22;310;48.490;9.200;2023-03-25T13:40:34;12.40;50.80
652;DHT22;310;48.490;9.200;2023-03-25T13:43:22;13.70;50.30
652;DHT22;310;48.490;9.200;2023-03-25T13:46:03;16.60;37.60
652;DHT22;310;48.490;9.200;2023-03-25T13:51:03;17.80;30.20
652;DHT22;310;48.490;9.200;2023-03-25T13:53:33;18.60;29.00
652;DHT22;310;48.490;9.200;2023-03-25T14:05:05;18.70;25.00
652;DHT22;310;48.490;9.200;2023-03-25T14:10:51;20.90;21.20
652;DHT22;310;48.490;9.200;2023-03-25T14:13:31;19.10;23.90
652;DHT22;310;48.490;9.200;2023-03-25T14:16:07;18.40;24.80
652;DHT22;310;48.490;9.200;2023-03-25T14:19:03;16.20;25.60
652;DHT22;310;48.490;9.200;2023-03-25T14:21:30;14.70;28.50
652;DHT22;310;48.490;9.200;2023-03-25T14:24:06;13.80;31.10
652;DHT22;310;48.490;9.200;2023-03-25T14:26:35;14.30;30.20
652;DHT22;310;48.490;9.200;2023-03-25T14:34:29;17.40;24.60
652;DHT22;310;48.490;9.200;2023-03-25T14:44:48;20.50;21.00
652;DHT22;310;48.490;9.200;2023-03-25T14:53:05;18.00;22.00
652;DHT22;310;48.490;9.200;2023-03-25T14:55:44;15.80;25.60
652;DHT22;310;48.490;9.200;2023-03-25T14:58:24;15.20;26.70
652;DHT22;310;48.490;9.200;2023-03-25T15:01:07;14.90;27.60
652;DHT22;310;48.490;9.200;2023-03-25T15:03:40;15.10;27.70
652;DHT22;310;48.490;9.200;2023-03-25T15:06:15;14.60;28.00
652;DHT22;310;48.490;9.200;2023-03-25T15:08:49;14.70;28.70
652;DHT22;310;48.490;9.200;2023-03-25T15:11:26;15.00;28.30
652;DHT22;310;48.490;9.200;2023-03-25T15:13:59;14.70;29.00
652;DHT22;310;48.490;9.200;2023-03-25T15:16:37;14.80;29.50
652;DHT22;310;48.490;9.200;2023-03-25T15:19:05;14.60;29.50
652;DHT22;310;48.490;9.200;2023-03-25T15:24:36;14.70;29.80
652;DHT22;310;48.490;9.200;2023-03-25T15:46:18;13.10;31.40
652;DHT22;310;48.490;9.200;2023-03-25T15:54:31;13.60;31.40
652;DHT22;310;48.490;9.200;2023-03-25T16:04:58;13.10;34.20
652;DHT22;310;48.490;9.200;2023-03-25T16:07:26;13.20;35.10
652;DHT22;310;48.490;9.200;2023-03-25T16:09:55;13.20;34.10
652;DHT22;310;48.490;9.200;2023-03-25T16:12:23;13.00;35.20
652;DHT22;310;48.490;9.200;2023-03-25T16:14:50;13.20;35.30
652;DHT22;310;48.490;9.200;2023-03-25T16:17:18;13.10;34.30
652;DHT22;310;48.490;9.200;2023-03-25T16:19:54;12.90;35.10
652;DHT22;310;48.490;9.200;2023-03-25T16:22:29;13.70;34.80
652;DHT22;310;48.490;9.200;2023-03-25T16:25:01;13.60;32.70
652;DHT22;310;48.490;9.200;2023-03-25T16:27:34;13.30;34.10
652;DHT22;310;48.490;9.200;2023-03-25T16:30:02;13.00;34.90
652;DHT22;310;48.490;9.200;2023-03-25T16:32:33;13.10;34.80
652;DHT22;310;48.490;9.200;2023-03-25T16:34:59;13.50;35.60
652;DHT22;310;48.490;9.200;2023-03-25T16:37:26;13.20;35.20
652;DHT22;310;48.490;9.200;2023-03-25T16:39:53;13.30;34.20
652;DHT22;310;48.490;9.200;2023-03-25T16:44:51;13.40;34.80
652;DHT22;310;48.490;9.200;2023-03-25T16:47:17;13.80;33.60
652;DHT22;310;48.490;9.200;2023-03-25T16:49:47;13.90;33.30
652;DHT22;310;48.490;9.200;2023-03-25T16:52:17;13.40;34.70
652;DHT22;310;48.490;9.200;2023-03-25T16:55:11;13.40;34.50
652;DHT22;310;48.490;9.200;2023-03-25T16:57:38;13.60;34.10
652;DHT22;310;48.490;9.200;2023-03-25T17:00:17;13.50;34.20
652;DHT22;310;48.490;9.200;2023-03-25T17:02:44;13.50;34.80
652;DHT22;310;48.490;9.200;2023-03-25T17:05:18;13.80;34.70
652;DHT22;310;48.490;9.200;2023-03-25T17:07:46;13.60;34.40
652;DHT22;310;48.490;9.200;2023-03-25T17:10:24;13.70;33.60
652;DHT22;310;48.490;9.200;2023-03-25T17:13:09;13.90;33.70
652;DHT22;310;48.490;9.200;2023-03-25T17:15:35;13.30;35.20
652;DHT22;310;48.490;9.200;2023-03-25T17:18:05;13.30;34.40
652;DHT22;310;48.490;9.200;2023-03-25T17:20:39;13.20;34.50
652;DHT22;310;48.490;9.200;2023-03-25T17:25:52;13.70;33.00
652;DHT22;310;48.490;9.200;2023-03-25T17:28:34;13.40;33.20
652;DHT22;310;48.490;9.200;2023-03-25T17:33:51;14.10;31.00
652;DHT22;310;48.490;9.200;2023-03-25T17:36:18;14.90;30.00
652;DHT22;310;48.490;9.200;2023-03-25T17:38:46;13.70;30.00
652;DHT22;310;48.490;9.200;2023-03-25T17:41:14;13.10;31.00
652;DHT22;310;48.490;9.200;2023-03-25T17:43:49;13.20;30.40
652;DHT22;310;48.490;9.200;2023-03-25T17:46:19;13.10;29.90
652;DHT22;310;48.490;9.200;2023-03-25T17:48:45;13.50;29.60
652;DHT22;310;48.490;9.200;2023-03-25T17:51:17;13.20;29.50
652;DHT22;310;48.490;9.200;2023-03-25T17:53:43;13.10;29.40
652;DHT22;310;48.490;9.200;2023-03-25T17:56:11;13.30;29.10
652;DHT22;310;48.490;9.200;2023-03-25T17:58:37;13.20;29.00
652;DHT22;310;48.490;9.200;2023-03-25T18:01:03;13.00;29.10
652;DHT22;310;48.490;9.200;2023-03-25T18:03:30;12.70;30.20
652;DHT22;310;48.490;9.200;2023-03-25T18:05:57;13.10;29.60
652;DHT22;310;48.490;9.200;2023-03-25T18:08:26;12.90;29.70
652;DHT22;310;48.490;9.200;2023-03-25T18:10:53;13.30;28.80
652;DHT22;310;48.490;9.200;2023-03-25T18:13:19;13.30;28.90
652;DHT22;310;48.490;9.200;2023-03-25T18:15:46;13.20;29.40
652;DHT22;310;48.490;9.200;2023-03-25T18:18:16;13.10;30.10
652;DHT22;310;48.490;9.200;2023-03-25T18:20:42;13.00;30.20
652;DHT22;310;48.490;9.200;2023-03-25T18:23:08;13.10;30.20
652;DHT22;310;48.490;9.200;2023-03-25T18:25:34;12.90;33.90
652;DHT22;310;48.490;9.200;2023-03-25T18:27:59;12.20;35.90
652;DHT22;310;48.490;9.200;2023-03-25T18:30:28;12.30;36.70
652;DHT22;310;48.490;9.200;2023-03-25T18:32:54;11.70;38.00
652;DHT22;310;48.490;9.200;2023-03-25T18:35:21;11.50;38.40
652;DHT22;310;48.490;9.200;2023-03-25T18:37:47;12.20;38.30
652;DHT22;310;48.490;9.200;2023-03-25T18:40:26;12.10;37.60
652;DHT22;310;48.490;9.200;2023-03-25T18:42:53;11.80;38.90
652;DHT22;310;48.490;9.200;2023-03-25T18:45:21;11.50;39.80
652;DHT22;310;48.490;9.200;2023-03-25T18:47:47;11.50;40.60
652;DHT22;310;48.490;9.200;2023-03-25T18:50:31;12.20;39.20
652;DHT22;310;48.490;9.200;2023-03-25T18:52:58;12.50;39.30
652;DHT22;310;48.490;9.200;2023-03-25T18:55:26;12.30;38.90
652;DHT22;310;48.490;9.200;2023-03-25T18:57:53;12.50;39.10
652;DHT22;310;48.490;9.200;2023-03-25T19:00:27;11.90;42.60
652;DHT22;310;48.490;9.200;2023-03-25T19:02:54;11.30;47.60
652;DHT22;310;48.490;9.200;2023-03-25T19:05:21;11.20;45.70
652;DHT22;310;48.490;9.200;2023-03-25T19:07:48;11.90;43.40
652;DHT22;310;48.490;9.200;2023-03-25T19:10:25;11.50;43.50
652;DHT22;310;48.490;9.200;2023-03-25T19:12:52;12.00;43.80
652;DHT22;310;48.490;9.200;2023-03-25T19:15:19;12.00;41.40
652;DHT22;310;48.490;9.200;2023-03-25T19:17:46;12.00;40.40
652;DHT22;310;48.490;9.200;2023-03-25T19:20:23;11.90;41.70
652;DHT22;310;48.490;9.200;2023-03-25T19:22:50;11.90;40.90
652;DHT22;310;48.490;9.200;2023-03-25T19:25:16;12.30;40.00
652;DHT22;310;48.490;9.200;2023-03-25T19:27:42;12.20;39.10
652;DHT22;310;48.490;9.200;2023-03-25T19:30:11;12.50;39.60
652;DHT22;310;48.490;9.200;2023-03-25T19:32:37;12.40;40.10
652;DHT22;310;48.490;9.200;2023-03-25T19:35:04;12.90;37.70
652;DHT22;310;48.490;9.200;2023-03-25T19:37:30;12.90;37.50
652;DHT22;310;48.490;9.200;2023-03-25T19:40:00;13.00;37.30
652;DHT22;310;48.490;9.200;2023-03-25T19:42:26;12.90;36.30
652;DHT22;310;48.490;9.200;2023-03-25T19:44:52;13.00;37.10
652;DHT22;310;48.490;9.200;2023-03-25T19:47:19;13.10;36.90
652;DHT22;310;48.490;9.200;2023-03-25T19:49:45;12.70;36.80
652;DHT22;310;48.490;9.200;2023-03-25T19:52:10;13.00;36.50
652;DHT22;310;48.490;9.200;2023-03-25T19:54:36;13.00;37.90
652;DHT22;310;48.490;9.200;2023-03-25T19:57:02;13.20;38.70